Time;durP1;ratioP1;P1;durP2;ratioP2;P2;SDS_P1;SDS_P2;PMS_P1;PMS_P2;Temp;Humidity;BMP_temperature;BMP_pressure;BME280_temperature;BME280_humidity;BME280_pressure;Samples;Min_cycle;Max_cycle;Signal;HPM_P1;HPM_P2
2022/09/01 00:02:28;;;;;;;9.55;8.35;;;14.40;99.90;;;;;;4994937;28;20210;-87
2022/09/01 00:04:57;;;;;;;9.80;8.10;;;14.40;99.90;;;;;;4977678;28;20452;-86
2022/09/01 00:07:24;;;;;;;8.50;7.40;;;14.40;99.90;;;;;;4982440;28;20186;-87
2022/09/01 00:09:50;;;;;;;10.37;7.40;;;14.50;99.90;;;;;;4986031;28;20191;-87
2022/09/01 00:12:16;;;;;;;11.70;8.57;;;14.40;99.90;;;;;;4997851;28;20441;-87
2022/09/01 00:14:42;;;;;;;8.73;7.15;;;14.30;99.90;;;;;;4980538;28;20234;-87
2022/09/01 00:17:10;;;;;;;10.67;8.33;;;14.20;99.90;;;;;;4978079;28;20210;-86
2022/09/01 00:19:36;;;;;;;11.68;7.47;;;14.20;99.90;;;;;;4991412;28;20506;-88
2022/09/01 00:22:03;;;;;;;9.10;7.90;;;14.20;99.90;;;;;;5001815;28;20211;-87
2022/09/01 00:24:29;;;;;;;9.48;8.40;;;14.10;99.90;;;;;;5000766;28;20457;-87
2022/09/01 00:26:56;;;;;;;12.37;8.53;;;14.10;99.90;;;;;;4978081;28;20187;-87
2022/09/01 00:29:22;;;;;;;9.00;7.22;;;14.00;99.90;;;;;;4986298;28;20808;-86
2022/09/01 00:31:47;;;;;;;10.75;8.85;;;14.00;99.90;;;;;;4983344;28;20207;-85
2022/09/01 00:34:14;;;;;;;10.97;7.47;;;14.70;99.90;;;;;;5001277;28;20820;-87
2022/09/01 00:36:40;;;;;;;9.50;8.30;;;14.00;99.90;;;;;;4993369;28;20212;-87
2022/09/01 00:39:06;;;;;;;11.13;8.93;;;13.90;99.90;;;;;;4988380;28;22239;-87
2022/09/01 00:41:33;;;;;;;9.82;8.60;;;13.90;99.90;;;;;;4993457;28;20199;-87
2022/09/01 00:44:04;;;;;;;10.85;9.05;;;13.80;99.90;;;;;;4986487;28;20214;-87
2022/09/01 00:46:36;;;;;;;10.10;8.88;;;13.80;99.90;;;;;;4997454;28;20214;-87
2022/09/01 00:49:06;;;;;;;14.05;8.88;;;13.80;99.90;;;;;;5003161;28;20183;-87
2022/09/01 00:51:35;;;;;;;13.02;9.35;;;13.70;99.90;;;;;;4993026;28;20183;-87
2022/09/01 00:54:02;;;;;;;14.18;9.30;;;13.70;99.90;;;;;;5013260;28;20192;-87
2022/09/01 00:56:29;;;;;;;17.05;9.65;;;13.80;99.90;;;;;;5005193;28;20195;-88
2022/09/01 00:58:54;;;;;;;16.60;9.85;;;13.80;99.90;;;;;;4979774;28;20214;-87
2022/09/01 01:01:20;;;;;;;11.67;10.50;;;13.50;99.90;;;;;;4993183;28;20230;-88
2022/09/01 01:03:46;;;;;;;15.57;9.80;;;13.80;99.90;;;;;;4998898;28;20186;-86
2022/09/01 01:06:14;;;;;;;13.40;10.23;;;13.80;99.90;;;;;;4978019;28;20308;-87
2022/09/01 01:08:48;;;;;;;17.73;10.05;;;13.80;99.90;;;;;;4975281;28;20182;-88
2022/09/01 01:11:18;;;;;;;10.93;9.82;;;13.70;99.90;;;;;;4995670;28;20178;-87
2022/09/01 01:14:20;;;;;;;12.50;10.05;;;13.70;99.90;;;;;;4984102;28;20174;-87
2022/09/01 01:16:50;;;;;;;9.07;8.13;;;13.70;99.90;;;;;;4950096;28;20190;-88
2022/09/01 01:25:35;;;;;;;13.60;9.35;;;13.60;99.90;;;;;;5014224;28;20265;-86
2022/09/01 01:28:17;;;;;;;11.85;9.30;;;13.50;99.90;;;;;;5006185;28;20178;-86
2022/09/01 01:31:00;;;;;;;15.52;11.60;;;13.50;99.90;;;;;;4983377;28;20190;-86
2022/09/01 01:33:30;;;;;;;13.02;9.10;;;13.50;99.90;;;;;;5000013;28;20211;-89
2022/09/01 01:35:57;;;;;;;14.00;11.10;;;13.50;99.90;;;;;;4992560;28;20199;-86
2022/09/01 01:38:24;;;;;;;10.95;9.57;;;13.40;99.90;;;;;;4985442;28;20199;-87
2022/09/01 01:40:53;;;;;;;13.40;10.45;;;13.40;99.90;;;;;;5000397;28;20182;-86
2022/09/01 01:43:20;;;;;;;15.00;10.50;;;13.30;99.90;;;;;;4995795;28;20183;-88
2022/09/01 01:45:50;;;;;;;13.60;11.32;;;13.30;99.90;;;;;;4979147;28;20222;-89
2022/09/01 01:48:23;;;;;;;13.43;10.88;;;13.20;99.90;;;;;;4985248;28;20198;-88
2022/09/01 01:50:53;;;;;;;15.25;11.80;;;13.30;99.90;;;;;;4997292;28;20179;-87
2022/09/01 01:53:20;;;;;;;14.13;11.20;;;13.30;99.90;;;;;;5000022;28;20691;-88
2022/09/01 01:55:49;;;;;;;16.60;11.68;;;13.30;99.90;;;;;;4994344;28;20353;-88
2022/09/01 01:58:18;;;;;;;13.88;12.00;;;13.30;99.90;;;;;;4976322;28;20587;-87
2022/09/01 02:00:45;;;;;;;17.42;12.50;;;13.20;99.90;;;;;;4985335;28;20183;-87
2022/09/01 02:03:13;;;;;;;16.58;12.57;;;13.20;99.90;;;;;;5004232;28;20209;-86
2022/09/01 02:05:39;;;;;;;15.45;12.10;;;13.20;99.90;;;;;;4993419;28;20198;-86
2022/09/01 02:08:07;;;;;;;13.50;11.83;;;13.20;99.90;;;;;;4988013;28;20179;-85
2022/09/01 02:10:35;;;;;;;15.15;11.30;;;13.20;99.90;;;;;;5006292;28;20469;-87
2022/09/01 02:13:04;;;;;;;16.85;13.50;;;13.20;99.90;;;;;;4997876;28;20730;-87
2022/09/01 02:15:41;;;;;;;16.02;11.27;;;13.20;99.90;;;;;;5009231;28;20195;-87
2022/09/01 02:18:06;;;;;;;15.27;11.98;;;13.20;99.90;;;;;;5000881;28;20185;-85
2022/09/01 02:20:32;;;;;;;17.73;13.00;;;13.20;99.90;;;;;;4994802;28;20187;-86
2022/09/01 02:23:06;;;;;;;14.00;11.40;;;;;;;;;;5015774;28;20245;-87
2022/09/01 02:25:34;;;;;;;14.40;12.70;;;13.30;99.90;;;;;;4988738;28;20235;-86
2022/09/01 02:28:01;;;;;;;14.30;11.93;;;13.20;99.90;;;;;;4987115;28;20717;-86
2022/09/01 02:30:27;;;;;;;16.08;12.38;;;13.20;99.90;;;;;;4995841;28;20245;-86
2022/09/01 02:32:53;;;;;;;17.03;14.47;;;13.20;99.90;;;;;;4983015;28;20183;-86
2022/09/01 02:35:19;;;;;;;14.93;12.03;;;13.20;99.90;;;;;;4988052;28;20457;-87
2022/09/01 02:37:48;;;;;;;15.77;12.60;;;13.20;99.90;;;;;;4987829;28;20187;-87
2022/09/01 02:40:14;;;;;;;14.35;12.32;;;13.20;99.90;;;;;;4980710;28;20226;-86
2022/09/01 02:42:42;;;;;;;15.50;12.23;;;13.20;99.90;;;;;;4996757;28;20211;-85
2022/09/01 02:45:10;;;;;;;14.77;12.38;;;13.20;99.90;;;;;;4994721;28;20274;-86
2022/09/01 02:47:40;;;;;;;14.60;12.52;;;13.10;99.90;;;;;;4997881;28;20495;-86
2022/09/01 02:50:12;;;;;;;25.98;14.60;;;13.10;99.90;;;;;;5001029;28;20175;-87
2022/09/01 02:52:39;;;;;;;15.02;11.82;;;13.10;99.90;;;;;;5000282;28;20656;-86
2022/09/01 02:55:06;;;;;;;18.25;14.15;;;13.10;99.90;;;;;;4983437;28;20203;-86
2022/09/01 02:57:33;;;;;;;16.35;13.65;;;13.00;99.90;;;;;;4997040;28;20178;-87
2022/09/01 02:59:59;;;;;;;16.40;12.90;;;13.00;99.90;;;;;;4992180;28;20187;-87
2022/09/01 03:02:27;;;;;;;18.02;13.80;;;12.90;99.90;;;;;;4997379;28;20230;-89
2022/09/01 03:04:54;;;;;;;17.63;13.95;;;12.90;99.90;;;;;;4999041;28;20297;-85
2022/09/01 03:07:22;;;;;;;15.98;12.40;;;12.90;99.90;;;;;;4979823;28;20316;-86
2022/09/01 03:09:48;;;;;;;20.67;12.75;;;12.90;99.90;;;;;;4992469;28;20178;-86
2022/09/01 03:12:13;;;;;;;21.00;15.90;;;12.90;99.90;;;;;;4998841;28;20238;-86
2022/09/01 03:14:39;;;;;;;25.30;17.20;;;12.90;99.90;;;;;;5000173;28;20214;-86
2022/09/01 03:17:04;;;;;;;18.77;15.67;;;15.00;99.90;;;;;;4998934;28;20199;-87
2022/09/01 03:19:38;;;;;;;20.70;16.50;;;12.90;99.90;;;;;;4990764;28;20186;-88
2022/09/01 03:22:04;;;;;;;21.98;15.55;;;13.00;99.90;;;;;;4991450;28;20787;-87
2022/09/01 03:24:31;;;;;;;24.30;15.97;;;12.90;99.90;;;;;;5003138;28;20187;-87
2022/09/01 03:26:56;;;;;;;19.23;14.65;;;12.90;99.90;;;;;;4990028;28;20210;-87
2022/09/01 03:29:22;;;;;;;23.50;16.80;;;12.90;99.90;;;;;;4991784;28;20183;-87
2022/09/01 03:31:48;;;;;;;24.17;18.67;;;;;;;;;;4994844;28;20474;-87
2022/09/01 03:34:16;;;;;;;27.38;18.20;;;13.20;99.90;;;;;;4988150;28;20267;-87
2022/09/01 03:36:48;;;;;;;23.55;18.85;;;13.30;99.90;;;;;;4988603;28;20214;-88
2022/09/01 03:39:16;;;;;;;32.50;18.73;;;13.30;99.90;;;;;;4999318;28;20192;-87
2022/09/01 03:41:41;;;;;;;23.77;17.27;;;13.50;99.90;;;;;;4996782;28;20214;-87
2022/09/01 03:44:12;;;;;;;19.70;16.40;;;13.50;99.90;;;;;;4989778;28;20670;-87
2022/09/01 03:46:39;;;;;;;20.20;16.05;;;13.40;99.90;;;;;;4988016;28;21189;-87
2022/09/01 03:49:14;;;;;;;17.75;14.70;;;13.40;99.90;;;;;;4988989;28;20273;-86
2022/09/01 03:51:41;;;;;;;17.75;14.32;;;13.40;99.90;;;;;;5017611;28;20233;-87
2022/09/01 03:54:07;;;;;;;19.10;15.30;;;13.30;99.90;;;;;;5007204;28;20182;-88
2022/09/01 03:56:33;;;;;;;18.47;14.60;;;13.20;99.90;;;;;;4994347;28;20210;-87
2022/09/01 03:58:59;;;;;;;17.67;13.97;;;13.10;99.90;;;;;;4989911;28;20183;-88
2022/09/01 04:01:27;;;;;;;19.13;15.02;;;13.00;99.90;;;;;;4997069;28;20203;-87
2022/09/01 04:03:53;;;;;;;17.10;14.38;;;12.90;99.90;;;;;;4999568;28;20195;-87
2022/09/01 04:06:20;;;;;;;26.30;18.43;;;12.90;99.90;;;;;;4997271;28;20309;-87
2022/09/01 04:08:46;;;;;;;25.60;19.20;;;12.90;99.90;;;;;;4990101;28;20179;-87
2022/09/01 04:11:17;;;;;;;28.93;20.30;;;13.00;99.90;;;;;;5000008;28;20229;-87
2022/09/01 04:13:45;;;;;;;25.77;18.45;;;13.10;99.90;;;;;;4980580;28;20449;-87
2022/09/01 04:19:19;;;;;;;29.77;18.65;;;13.20;99.90;;;;;;5003047;28;20224;-87
2022/09/01 04:21:49;;;;;;;24.40;18.70;;;13.10;99.90;;;;;;5012389;28;20232;-87
2022/09/01 04:24:15;;;;;;;29.55;15.75;;;13.20;99.90;;;;;;5004048;28;20241;-87
2022/09/01 04:26:41;;;;;;;24.15;17.20;;;13.20;99.90;;;;;;5001378;28;20820;-88
2022/09/01 04:29:08;;;;;;;20.73;15.70;;;13.20;99.90;;;;;;4981182;28;20181;-88
2022/09/01 04:31:37;;;;;;;23.30;18.23;;;13.20;99.90;;;;;;4981703;28;20229;-87
2022/09/01 04:34:09;;;;;;;25.95;17.80;;;13.10;99.90;;;;;;4985068;28;20180;-87
2022/09/01 04:36:36;;;;;;;20.02;14.93;;;13.10;99.90;;;;;;5003296;28;20203;-87
2022/09/01 04:39:07;;;;;;;28.15;19.52;;;13.10;99.90;;;;;;5001816;28;20527;-87
2022/09/01 04:41:36;;;;;;;29.65;20.58;;;13.00;99.90;;;;;;4997101;28;20218;-87
2022/09/01 04:44:03;;;;;;;28.42;19.98;;;13.00;99.90;;;;;;4999169;28;20179;-87
2022/09/01 04:46:34;;;;;;;28.55;19.40;;;13.00;99.90;;;;;;4996329;28;20211;-87
2022/09/01 04:49:02;;;;;;;24.45;19.40;;;13.00;99.90;;;;;;4994103;28;20696;-86
2022/09/01 04:51:28;;;;;;;26.67;18.10;;;13.00;99.90;;;;;;4992451;28;20209;-87
2022/09/01 04:53:56;;;;;;;26.07;17.10;;;13.00;99.90;;;;;;4999092;28;20671;-86
2022/09/01 04:56:22;;;;;;;29.52;19.60;;;12.90;99.90;;;;;;4999116;28;20202;-86
2022/09/01 04:58:49;;;;;;;29.08;18.55;;;12.80;99.90;;;;;;4988524;28;20197;-86
2022/09/01 05:01:24;;;;;;;27.33;17.55;;;12.80;99.90;;;;;;4986336;28;20209;-88
2022/09/01 05:03:57;;;;;;;38.85;24.45;;;12.90;99.90;;;;;;4982340;28;20549;-86
2022/09/01 05:06:23;;;;;;;33.80;23.42;;;13.10;99.90;;;;;;4985316;28;20735;-88
2022/09/01 05:08:50;;;;;;;36.70;24.67;;;13.50;99.90;;;;;;4988058;28;20225;-89
2022/09/01 05:11:16;;;;;;;39.13;25.10;;;13.80;99.90;;;;;;4990071;28;20183;-87
2022/09/01 05:13:47;;;;;;;38.47;25.20;;;14.00;99.90;;;;;;4990791;28;20193;-88
2022/09/01 05:16:19;;;;;;;32.90;20.92;;;14.40;99.90;;;;;;4988497;28;20198;-88
2022/09/01 05:18:49;;;;;;;27.70;20.30;;;14.80;99.90;;;;;;4984312;28;20190;-87
2022/09/01 05:21:17;;;;;;;27.58;19.90;;;15.20;99.90;;;;;;4999186;28;20445;-90
2022/09/01 05:23:44;;;;;;;28.73;18.15;;;15.20;99.90;;;;;;5013228;28;20293;-91
2022/09/01 05:26:16;;;;;;;25.20;19.00;;;15.40;99.90;;;;;;4994105;28;20285;-90
2022/09/01 05:28:48;;;;;;;29.57;19.00;;;15.70;99.90;;;;;;4988121;28;20430;-90
2022/09/01 05:31:18;;;;;;;28.52;17.92;;;16.00;99.90;;;;;;4988778;28;20442;-87
2022/09/01 05:33:44;;;;;;;23.27;18.47;;;15.80;99.90;;;;;;4982052;28;21226;-87
2022/09/01 05:36:12;;;;;;;24.83;20.33;;;15.50;99.90;;;;;;4983373;28;20698;-89
2022/09/01 05:38:41;;;;;;;28.07;19.20;;;15.70;99.90;;;;;;4977039;28;20442;-90
2022/09/01 05:41:09;;;;;;;26.70;18.43;;;15.90;99.90;;;;;;4999943;28;20480;-89
2022/09/01 05:43:35;;;;;;;34.20;21.90;;;15.90;99.90;;;;;;4999215;28;20568;-88
2022/09/01 05:46:07;;;;;;;28.17;19.27;;;15.80;99.90;;;;;;4996553;28;20505;-87
2022/09/01 05:48:33;;;;;;;25.27;17.33;;;16.20;99.90;;;;;;4984371;28;20517;-86
2022/09/01 05:50:59;;;;;;;23.53;17.93;;;17.00;99.90;;;;;;4992825;28;20437;-86
2022/09/01 05:53:29;;;;;;;22.43;17.57;;;17.40;99.90;;;;;;4979860;28;20430;-86
2022/09/01 05:55:56;;;;;;;24.90;17.43;;;18.10;99.90;;;;;;4978248;28;20194;-87
2022/09/01 05:58:24;;;;;;;25.17;18.80;;;18.80;99.90;;;;;;4993463;28;20489;-87
2022/09/01 06:00:52;;;;;;;18.73;14.43;;;19.60;99.90;;;;;;4995118;28;20457;-87
2022/09/01 06:03:20;;;;;;;22.27;15.97;;;20.70;99.90;;;;;;5002443;22;20988;-81
2022/09/01 06:05:51;;;;;;;18.90;14.87;;;20.80;99.90;;;;;;5027788;28;20964;-81
2022/09/01 06:08:19;;;;;;;28.20;17.27;;;22.10;99.90;;;;;;5011651;28;20414;-83
2022/09/01 06:10:45;;;;;;;20.03;15.17;;;22.10;99.90;;;;;;5024831;28;20436;-83
2022/09/01 06:13:14;;;;;;;19.83;14.97;;;22.60;99.90;;;;;;5028116;28;20441;-84
2022/09/01 06:15:41;;;;;;;21.23;16.07;;;23.30;99.90;;;;;;5024065;28;20436;-83
2022/09/01 06:18:11;;;;;;;17.13;13.20;;;24.80;99.90;;;;;;5010859;28;20447;-84
2022/09/01 06:20:45;;;;;;;21.83;15.40;;;24.80;99.90;;;;;;5026916;28;20979;-81
2022/09/01 06:23:14;;;;;;;18.33;15.57;;;25.70;99.90;;;;;;5023442;28;20446;-84
2022/09/01 06:25:42;;;;;;;18.63;14.27;;;26.50;99.90;;;;;;5028057;28;20552;-80
2022/09/01 06:28:10;;;;;;;19.87;16.37;;;27.30;99.90;;;;;;5024004;28;20515;-80
2022/09/01 06:30:36;;;;;;;17.90;15.23;;;27.30;99.90;;;;;;5018613;28;20460;-79
2022/09/01 06:33:06;;;;;;;15.97;13.80;;;27.70;99.90;;;;;;5021720;28;20462;-83
2022/09/01 06:35:32;;;;;;;21.57;15.63;;;27.90;99.90;;;;;;5014300;28;20769;-81
2022/09/01 06:37:58;;;;;;;15.07;13.03;;;28.00;99.90;;;;;;5020586;28;20444;-82
2022/09/01 06:40:24;;;;;;;19.07;15.30;;;27.80;99.90;;;;;;5008227;28;20553;-81
2022/09/01 06:42:51;;;;;;;16.43;13.50;;;26.80;99.90;;;;;;5024207;28;20574;-82
2022/09/01 06:45:23;;;;;;;18.80;16.53;;;25.50;99.90;;;;;;5022901;28;20170;-80
2022/09/01 06:47:50;;;;;;;17.97;14.83;;;24.50;99.90;;;;;;4999755;28;20437;-78
2022/09/01 06:50:20;;;;;;;23.83;18.13;;;23.40;99.90;;;;;;5014538;28;20964;-82
2022/09/01 06:52:48;;;;;;;20.10;15.77;;;22.30;99.90;;;;;;5012315;28;20473;-82
2022/09/01 06:55:15;;;;;;;20.80;15.27;;;21.40;99.90;;;;;;5011708;28;20797;-81
2022/09/01 06:57:46;;;;;;;21.70;15.60;;;20.90;99.90;;;;;;4994321;28;20440;-80
2022/09/01 07:00:19;;;;;;;22.77;16.90;;;20.60;99.90;;;;;;5009825;28;20688;-80
2022/09/01 07:02:46;;;;;;;22.63;16.23;;;20.30;99.90;;;;;;4996353;28;20552;-80
2022/09/01 07:05:18;;;;;;;25.10;16.57;;;20.10;99.90;;;;;;5013063;28;20440;-81
2022/09/01 07:07:50;;;;;;;28.93;17.97;;;20.10;99.90;;;;;;5010746;28;20420;-78
2022/09/01 07:10:21;;;;;;;21.27;16.47;;;19.90;99.90;;;;;;5015068;28;20961;-81
2022/09/01 07:12:54;;;;;;;22.20;15.73;;;19.90;99.90;;;;;;5009120;28;20435;-81
2022/09/01 07:15:21;;;;;;;25.80;17.10;;;20.00;99.90;;;;;;5019312;28;20433;-81
2022/09/01 07:17:51;;;;;;;21.37;15.80;;;20.40;99.90;;;;;;5025040;28;20806;-82
2022/09/01 07:20:19;;;;;;;22.07;15.40;;;20.90;99.90;;;;;;5023416;28;21053;-82
2022/09/01 07:22:46;;;;;;;20.10;14.20;;;21.40;99.90;;;;;;5022405;28;20466;-80
2022/09/01 07:25:12;;;;;;;18.43;13.87;;;22.50;99.90;;;;;;5024008;28;20860;-81
2022/09/01 07:27:39;;;;;;;19.77;15.17;;;23.40;99.90;;;;;;5019780;28;20529;-81
2022/09/01 07:30:08;;;;;;;20.40;14.90;;;24.30;99.90;;;;;;5021796;28;20254;-77
2022/09/01 07:32:35;;;;;;;18.60;15.07;;;24.20;99.90;;;;;;5017039;28;20439;-80
2022/09/01 07:35:04;;;;;;;20.30;15.63;;;24.50;99.90;;;;;;5017689;28;20440;-81
2022/09/01 07:37:30;;;;;;;18.57;13.93;;;24.20;99.90;;;;;;5019861;28;20440;-80
2022/09/01 07:39:57;;;;;;;15.63;12.10;;;25.10;99.90;;;;;;5019005;28;20521;-82
2022/09/01 07:42:23;;;;;;;15.23;12.30;;;26.20;99.90;;;;;;5017716;28;20472;-81
2022/09/01 07:44:49;;;;;;;17.80;12.60;;;26.70;99.90;;;;;;5019526;28;20437;-82
2022/09/01 07:47:16;;;;;;;14.90;11.00;;;27.20;99.90;;;;;;5001384;28;20450;-80
2022/09/01 07:49:42;;;;;;;17.20;12.87;;;28.60;99.90;;;;;;5013724;28;20830;-82
2022/09/01 07:52:07;;;;;;;18.40;12.57;;;28.60;99.90;;;;;;5013889;28;20433;-81
2022/09/01 07:54:36;;;;;;;15.80;10.67;;;29.00;99.90;;;;;;4996064;28;20622;-80
2022/09/01 07:57:02;;;;;;;12.83;11.53;;;29.80;98.70;;;;;;5015639;28;20457;-80
2022/09/01 07:59:29;;;;;;;12.83;9.90;;;;;;;;;;5018723;28;20464;-81
2022/09/01 08:01:56;;;;;;;13.30;10.63;;;;;;;;;;5016085;28;20472;-81
2022/09/01 08:04:22;;;;;;;15.77;11.10;;;28.50;96.00;;;;;;5017601;28;20451;-80
2022/09/01 08:06:47;;;;;;;11.10;9.73;;;28.00;96.60;;;;;;5013791;28;20451;-79
2022/09/01 08:09:13;;;;;;;11.73;10.13;;;26.60;98.30;;;;;;4993165;28;20503;-79
2022/09/01 08:11:39;;;;;;;13.47;10.33;;;25.20;99.90;;;;;;5024755;28;20183;-79
2022/09/01 08:14:05;;;;;;;10.83;9.70;;;;;;;;;;5022110;28;20183;-82
2022/09/01 08:16:31;;;;;;;11.47;10.20;;;23.40;99.90;;;;;;5004186;28;20471;-78
2022/09/01 08:18:58;;;;;;;11.10;9.50;;;24.50;99.90;;;;;;5007641;28;20552;-81
2022/09/01 08:21:24;;;;;;;12.70;9.63;;;26.50;99.90;;;;;;5006978;28;20206;-80
2022/09/01 08:23:52;;;;;;;10.03;8.00;;;28.10;99.90;;;;;;5022573;28;20430;-81
2022/09/01 08:26:20;;;;;;;11.60;7.50;;;28.80;95.90;;;;;;5011809;28;20434;-80
2022/09/01 08:28:46;;;;;;;8.80;7.13;;;28.70;95.50;;;;;;5010123;28;20469;-80
2022/09/01 08:31:14;;;;;;;8.07;7.20;;;29.80;91.80;;;;;;5021157;28;20438;-81
2022/09/01 08:33:41;;;;;;;9.37;7.80;;;29.80;92.10;;;;;;5002372;28;20436;-80
2022/09/01 08:36:08;;;;;;;8.60;7.70;;;30.70;90.10;;;;;;5015767;28;21992;-81
2022/09/01 08:38:34;;;;;;;8.30;7.50;;;;;;;;;;5014271;28;20476;-80
2022/09/01 08:41:04;;;;;;;9.43;8.53;;;32.50;83.40;;;;;;5019606;28;20440;-81
2022/09/01 08:43:55;;;;;;;8.37;7.40;;;32.70;82.70;;;;;;5018901;28;20421;-81
2022/09/01 08:46:33;;;;;;;11.77;8.20;;;31.50;79.40;;;;;;5017327;28;20605;-81
2022/09/01 08:49:02;;;;;;;8.63;7.80;;;29.00;84.20;;;;;;5022194;28;20533;-81
2022/09/01 08:51:50;;;;;;;7.80;6.90;;;27.70;90.00;;;;;;5021917;28;21424;-80
2022/09/01 08:54:45;;;;;;;9.90;8.10;;;27.90;91.80;;;;;;5018339;28;20431;-81
2022/09/01 08:57:17;;;;;;;7.80;6.97;;;28.70;90.60;;;;;;5007608;28;21338;-81
2022/09/01 08:59:43;;;;;;;7.97;7.17;;;29.20;90.30;;;;;;5020606;28;20601;-81
2022/09/01 09:02:24;;;;;;;9.93;6.13;;;28.70;88.20;;;;;;5020714;28;20464;-81
2022/09/01 09:05:02;;;;;;;7.33;6.60;;;27.10;90.40;;;;;;5005726;28;20591;-80
2022/09/01 09:07:43;;;;;;;7.97;7.17;;;25.30;93.00;;;;;;5018440;28;20433;-80
2022/09/01 09:10:21;;;;;;;7.43;6.67;;;24.00;96.60;;;;;;5016672;28;20441;-81
2022/09/01 09:13:09;;;;;;;7.20;6.47;;;23.20;99.60;;;;;;5020542;28;20439;-81
2022/09/01 09:15:58;;;;;;;7.30;6.17;;;23.00;99.90;;;;;;5019833;28;21450;-81
2022/09/01 09:18:42;;;;;;;7.50;6.40;;;22.90;99.90;;;;;;5017717;28;20459;-80
2022/09/01 09:21:17;;;;;;;9.83;7.50;;;22.80;99.90;;;;;;5010724;28;20432;-80
2022/09/01 09:23:49;;;;;;;12.53;7.30;;;22.70;99.90;;;;;;5000607;28;20895;-81
2022/09/01 09:26:16;;;;;;;8.77;7.67;;;22.70;99.90;;;;;;5021509;28;20408;-81
2022/09/01 09:28:42;;;;;;;9.70;7.80;;;22.60;99.90;;;;;;5021812;28;20445;-81
2022/09/01 09:31:47;;;;;;;7.50;6.70;;;22.40;99.90;;;;;;5019068;28;20503;-80
2022/09/01 09:34:35;;;;;;;9.50;6.97;;;22.10;99.90;;;;;;5018656;28;20177;-80
2022/09/01 09:37:16;;;;;;;8.60;6.73;;;21.60;99.90;;;;;;5000600;28;20433;-81
2022/09/01 09:39:42;;;;;;;8.83;6.73;;;21.70;99.90;;;;;;5016309;28;20456;-81
2022/09/01 09:42:14;;;;;;;8.23;6.93;;;22.00;99.90;;;;;;5018677;28;20456;-80
2022/09/01 09:44:47;;;;;;;7.53;6.67;;;22.40;99.90;;;;;;5014912;28;20432;-80
2022/09/01 09:47:34;;;;;;;7.80;7.00;;;22.90;99.90;;;;;;5018436;28;20468;-80
2022/09/01 09:50:16;;;;;;;7.73;6.60;;;23.10;99.90;;;;;;5016858;28;20532;-81
2022/09/01 09:52:45;;;;;;;9.00;7.60;;;22.90;99.90;;;;;;5017522;28;20448;-80
2022/09/01 09:55:29;;;;;;;9.63;7.40;;;22.70;99.90;;;;;;5007691;28;20939;-80
2022/09/01 09:58:00;;;;;;;11.83;8.40;;;22.70;99.90;;;;;;5018869;28;20441;-82
2022/09/01 10:00:33;;;;;;;10.30;7.87;;;22.40;99.90;;;;;;5007852;28;20467;-80
2022/09/01 10:03:08;;;;;;;9.23;7.60;;;22.50;99.90;;;;;;5019865;28;20467;-80
2022/09/01 10:05:47;;;;;;;10.63;7.40;;;22.40;99.90;;;;;;5012579;28;20444;-81
2022/09/01 10:08:38;;;;;;;10.10;8.10;;;22.40;99.90;;;;;;5014742;28;20509;-80
2022/09/01 10:11:05;;;;;;;8.37;7.50;;;22.40;99.90;;;;;;5016449;28;20436;-81
2022/09/01 10:13:34;;;;;;;10.23;7.30;;;22.70;99.90;;;;;;5021290;28;20429;-80
2022/09/01 10:16:20;;;;;;;10.43;7.63;;;23.00;99.90;;;;;;5000337;28;20444;-81
2022/09/01 10:18:47;;;;;;;9.20;7.23;;;22.60;99.90;;;;;;5008871;28;20433;-82
2022/09/01 10:21:22;;;;;;;8.63;7.73;;;22.60;99.90;;;;;;5011093;28;20416;-80
2022/09/01 10:23:48;;;;;;;6.97;6.27;;;22.70;99.90;;;;;;5024480;28;22245;-81
2022/09/01 10:26:16;;;;;;;9.13;7.90;;;22.90;99.90;;;;;;5013718;28;20429;-80
2022/09/01 10:28:50;;;;;;;8.50;7.27;;;23.00;99.90;;;;;;5024100;28;20225;-81
2022/09/01 10:31:15;;;;;;;8.53;7.00;;;23.00;99.90;;;;;;5023413;28;20511;-81
2022/09/01 10:33:41;;;;;;;7.53;6.67;;;22.90;99.90;;;;;;5010164;28;20468;-80
2022/09/01 10:36:08;;;;;;;7.63;6.83;;;23.00;99.90;;;;;;5021589;28;20547;-81
2022/09/01 10:38:34;;;;;;;8.47;7.00;;;23.00;99.90;;;;;;5024641;28;20220;-81
2022/09/01 10:41:09;;;;;;;9.77;7.70;;;23.10;99.90;;;;;;5024023;28;20444;-80
2022/09/01 10:43:41;;;;;;;8.30;6.97;;;23.20;99.90;;;;;;5029507;28;20181;-80
2022/09/01 10:46:17;;;;;;;7.40;6.53;;;23.30;99.90;;;;;;5024312;28;20527;-80
2022/09/01 10:48:43;;;;;;;7.50;5.73;;;23.40;99.90;;;;;;5027408;28;20488;-80
2022/09/01 10:51:14;;;;;;;7.40;6.60;;;23.50;99.90;;;;;;5022646;23;20527;-87
2022/09/01 10:53:43;;;;;;;8.63;6.77;;;23.80;99.90;;;;;;5013945;28;20274;-87
2022/09/01 10:56:18;;;;;;;8.93;4.97;;;23.90;99.90;;;;;;4997286;28;20467;-84
2022/09/01 10:59:02;;;;;;;6.20;5.40;;;23.80;99.90;;;;;;5006918;28;20440;-86
2022/09/01 11:01:39;;;;;;;6.47;4.83;;;24.00;99.90;;;;;;4994488;28;20457;-85
2022/09/01 11:04:13;;;;;;;6.90;5.50;;;24.00;99.90;;;;;;4979233;28;20631;-86
2022/09/01 11:07:00;;;;;;;6.17;5.60;;;23.90;99.90;;;;;;4986963;28;20527;-84
2022/09/01 11:09:44;;;;;;;8.50;4.53;;;24.20;99.90;;;;;;5002134;28;20432;-84
2022/09/01 11:12:25;;;;;;;5.30;4.80;;;24.40;99.90;;;;;;4999847;28;20433;-84
2022/09/01 11:15:25;;;;;;;6.03;5.43;;;24.50;99.90;;;;;;5025559;28;20456;-84
2022/09/01 11:17:51;;;;;;;5.43;4.90;;;24.80;99.90;;;;;;5013216;28;20437;-85
2022/09/01 11:20:26;;;;;;;5.50;4.57;;;25.00;99.90;;;;;;5009314;28;20440;-86
2022/09/01 11:23:19;;;;;;;6.43;5.20;;;25.10;99.90;;;;;;4992224;28;21648;-85
2022/09/01 11:25:49;;;;;;;4.80;4.20;;;25.30;99.90;;;;;;5015164;28;20433;-85
2022/09/01 11:28:15;;;;;;;4.50;4.10;;;24.80;99.90;;;;;;5012637;28;20428;-85
2022/09/01 11:30:49;;;;;;;4.73;4.00;;;;;;;;;;5013871;28;20489;-83
2022/09/01 11:33:14;;;;;;;6.70;5.07;;;24.50;99.90;;;;;;4995846;28;20189;-85
2022/09/01 11:35:43;;;;;;;5.13;4.57;;;24.50;99.90;;;;;;5013733;28;20951;-87
2022/09/01 11:38:13;;;;;;;8.93;5.20;;;25.30;99.90;;;;;;5005232;28;20752;-86
2022/09/01 11:40:39;;;;;;;5.33;4.80;;;25.30;99.90;;;;;;5016364;28;20439;-85
2022/09/01 11:43:25;;;;;;;8.83;4.60;;;25.50;99.00;;;;;;5028446;28;20448;-85
2022/09/01 11:46:20;;;;;;;6.00;4.93;;;25.50;99.10;;;;;;5007214;28;20194;-85
2022/09/01 11:48:48;;;;;;;6.10;3.63;;;25.60;98.90;;;;;;5010459;28;20452;-85
2022/09/01 11:51:14;;;;;;;6.07;4.80;;;;;;;;;;5006547;28;20502;-85
2022/09/01 11:53:41;;;;;;;5.07;4.60;;;25.60;98.40;;;;;;5018328;28;20753;-86
2022/09/01 11:56:13;;;;;;;6.03;4.90;;;25.60;98.10;;;;;;5019621;28;20530;-87
2022/09/01 11:58:40;;;;;;;6.07;4.40;;;25.50;97.70;;;;;;5001234;28;20542;-86
2022/09/01 12:01:20;;;;;;;4.60;4.20;;;25.10;97.80;;;;;;5009883;28;20446;-86
2022/09/01 12:03:48;;;;;;;4.90;3.73;;;25.00;98.20;;;;;;5010340;28;20477;-86
2022/09/01 12:06:20;;;;;;;4.83;4.33;;;24.90;98.50;;;;;;4996708;28;20495;-87
2022/09/01 12:08:53;;;;;;;4.60;4.20;;;24.90;98.90;;;;;;5015643;28;22757;-86
2022/09/01 12:11:23;;;;;;;4.20;3.80;;;25.50;97.70;;;;;;5003363;28;20478;-87
2022/09/01 12:14:00;;;;;;;4.70;4.30;;;26.00;96.00;;;;;;5018934;28;20455;-87
2022/09/01 12:16:29;;;;;;;4.93;4.43;;;26.20;95.60;;;;;;5017417;28;20540;-86
2022/09/01 12:18:57;;;;;;;4.00;3.70;;;26.20;95.20;;;;;;5015185;28;20440;-87
2022/09/01 12:21:30;;;;;;;9.13;4.23;;;26.10;95.40;;;;;;5012279;28;20491;-86
2022/09/01 12:24:23;;;;;;;4.97;4.03;;;26.00;95.10;;;;;;5017925;28;20518;-88
2022/09/01 12:26:53;;;;;;;4.70;4.30;;;25.60;95.70;;;;;;5021301;28;20480;-87
2022/09/01 12:29:19;;;;;;;6.23;4.57;;;;;;;;;;5024611;28;20417;-88
2022/09/01 12:31:49;;;;;;;4.77;4.20;;;25.40;95.40;;;;;;5003803;28;20433;-88
2022/09/01 12:34:42;;;;;;;5.33;4.83;;;25.20;96.00;;;;;;5003417;28;20460;-87
2022/09/01 12:37:23;;;;;;;6.97;5.07;;;25.00;96.30;;;;;;5015099;28;20818;-87
2022/09/01 12:39:56;;;;;;;6.30;5.03;;;24.70;97.10;;;;;;5022191;28;20918;-88
2022/09/01 12:42:32;;;;;;;4.27;3.90;;;24.60;97.50;;;;;;5006545;28;20468;-87
2022/09/01 12:45:04;;;;;;;7.73;4.20;;;24.70;97.40;;;;;;5026802;28;20463;-87
2022/09/01 12:47:32;;;;;;;5.90;4.53;;;24.70;97.20;;;;;;5037227;28;20433;-88
2022/09/01 12:49:59;;;;;;;8.53;4.70;;;24.70;96.80;;;;;;5022598;28;20461;-89
2022/09/01 12:52:26;;;;;;;8.00;4.83;;;24.90;96.50;;;;;;5000420;28;20445;-89
2022/09/01 12:55:14;;;;;;;4.93;4.37;;;25.10;96.30;;;;;;5017944;28;20457;-88
2022/09/01 12:57:48;;;;;;;5.13;4.40;;;25.10;96.70;;;;;;5018971;28;21514;-88
2022/09/01 13:00:18;;;;;;;4.20;3.80;;;25.30;95.50;;;;;;5022419;28;20460;-88
2022/09/01 13:03:01;;;;;;;3.80;3.50;;;25.60;95.60;;;;;;5012770;28;20489;-88
2022/09/01 13:05:29;;;;;;;4.87;4.07;;;25.70;94.20;;;;;;5016998;28;20981;-88